createdAt,value
2018-04-22T00:00:35.670Z,77.92
2018-04-22T00:01:35.689Z,77.92
2018-04-22T00:02:35.715Z,78.30
2018-04-22T00:03:35.731Z,78.39
2018-04-22T00:04:35.769Z,78.39
2018-04-22T00:05:35.774Z,78.20
2018-04-22T00:06:35.797Z,78.49
2018-04-22T00:07:35.816Z,78.78
2018-04-22T00:08:35.841Z,78.68
2018-04-22T00:09:36.243Z,78.78
2018-04-22T00:10:35.881Z,78.78
2018-04-22T00:11:35.901Z,79.16
2018-04-22T00:12:36.226Z,80.02
2018-04-22T00:13:35.945Z,79.73
2018-04-22T00:14:35.965Z,79.83
2018-04-22T00:15:36.186Z,80.21
2018-04-22T00:16:36.008Z,80.02
2018-04-22T00:17:36.029Z,80.40
2018-04-22T00:18:36.052Z,80.11
2018-04-22T00:19:36.071Z,80.69
2018-04-22T00:20:36.092Z,80.98
2018-04-22T00:21:36.113Z,81.07
2018-04-22T00:22:36.134Z,81.07
2018-04-22T00:23:36.156Z,80.98
2018-04-22T00:24:36.180Z,81.84
2018-04-22T00:25:36.201Z,81.65
2018-04-22T00:26:36.222Z,82.03
2018-04-22T00:27:36.240Z,81.74
2018-04-22T00:28:36.261Z,81.55
2018-04-22T00:29:36.282Z,81.65
2018-04-22T00:30:36.305Z,81.74
2018-04-22T00:31:36.324Z,81.65
2018-04-22T00:32:36.349Z,81.55
2018-04-22T00:33:36.367Z,82.12
2018-04-22T00:34:36.388Z,81.93
2018-04-22T00:35:36.409Z,82.12
2018-04-22T00:36:36.731Z,82.41
2018-04-22T00:37:36.753Z,82.03
2018-04-22T00:38:36.474Z,82.70
2018-04-22T00:39:36.494Z,82.75
2018-04-22T00:40:36.515Z,82.56
2018-04-22T00:41:36.537Z,82.41
2018-04-22T00:42:36.558Z,82.65
2018-04-22T00:43:36.578Z,82.84
2018-04-22T00:44:36.601Z,83.13
2018-04-22T00:45:36.620Z,83.33
2018-04-22T00:46:36.642Z,83.51
2018-04-22T00:47:36.662Z,83.80
2018-04-22T00:48:36.685Z,83.61
2018-04-22T00:49:36.705Z,83.80
2018-04-22T00:50:36.727Z,84.38
2018-04-22T00:51:36.748Z,84.56
2018-04-22T00:52:36.769Z,84.09
2018-04-22T00:53:36.796Z,84.28
2018-04-22T00:54:36.811Z,84.66
2018-04-22T00:55:36.832Z,85.24
2018-04-22T00:56:36.858Z,84.66
2018-04-22T00:57:36.873Z,85.24
2018-04-22T00:58:36.896Z,85.14
2018-04-22T00:59:36.915Z,85.24
2018-04-22T01:00:36.937Z,85.52
2018-04-22T01:01:36.956Z,85.42
2018-04-22T01:02:36.982Z,85.71
2018-04-22T01:03:36.998Z,86.00
2018-04-22T01:04:37.020Z,85.81
2018-04-22T01:05:37.042Z,85.71
2018-04-22T01:06:37.063Z,86.10
2018-04-22T01:07:37.082Z,86.67
2018-04-22T01:08:37.103Z,86.19
2018-04-22T01:09:37.125Z,87.43
2018-04-22T01:10:37.146Z,87.15
2018-04-22T01:11:37.165Z,87.34
2018-04-22T01:12:37.186Z,87.34
2018-04-22T01:13:37.208Z,87.29
2018-04-22T01:14:37.229Z,87.77
2018-04-22T01:15:37.248Z,88.25
2018-04-22T01:16:37.273Z,87.96
2018-04-22T01:17:37.298Z,88.34
2018-04-22T01:18:37.312Z,88.34
2018-04-22T01:19:37.331Z,89.30
2018-04-22T01:20:37.353Z,89.01
2018-04-22T01:21:37.374Z,89.01
2018-04-22T01:22:37.401Z,89.20
2018-04-22T01:23:37.416Z,89.01
2018-04-22T01:24:37.443Z,88.63
2018-04-22T01:25:37.458Z,89.87
2018-04-22T01:26:37.481Z,89.49
2018-04-22T01:27:37.498Z,89.87
2018-04-22T01:28:37.526Z,89.59
2018-04-22T01:29:37.542Z,89.68
2018-04-22T01:30:37.563Z,89.78
2018-04-22T01:31:37.584Z,89.78
2018-04-22T01:32:37.603Z,89.68
2018-04-22T01:33:37.628Z,89.78
2018-04-22T01:34:37.646Z,90.06
2018-04-22T01:35:37.665Z,90.06
2018-04-22T01:36:37.689Z,90.06
2018-04-22T01:37:37.709Z,90.45
2018-04-22T01:38:37.729Z,90.64
2018-04-22T01:39:37.748Z,90.64
2018-04-22T01:40:37.770Z,90.25
2018-04-22T01:41:37.791Z,90.73
2018-04-22T01:42:37.811Z,90.06
2018-04-22T01:43:37.831Z,90.25
2018-04-22T01:44:37.852Z,90.06
2018-04-22T01:45:37.873Z,90.45
2018-04-22T01:46:37.897Z,90.92
2018-04-22T01:47:37.914Z,91.30
2018-04-22T01:48:37.935Z,91.40
2018-04-22T01:49:37.956Z,91.69
2018-04-22T01:50:37.976Z,91.40
2018-04-22T01:51:37.996Z,91.59
2018-04-22T01:52:38.017Z,91.11
2018-04-22T01:53:38.037Z,91.69
2018-04-22T01:54:38.061Z,91.78
2018-04-22T01:55:38.078Z,92.07
2018-04-22T01:56:38.098Z,92.83
2018-04-22T01:57:38.120Z,91.88
2018-04-22T01:58:38.140Z,92.45
2018-04-22T01:59:38.159Z,92.26
2018-04-22T02:00:38.180Z,92.55
2018-04-22T02:01:38.201Z,92.45
2018-04-22T02:02:38.221Z,92.64
2018-04-22T02:03:38.241Z,92.55
2018-04-22T02:04:38.263Z,92.26
2018-04-22T02:05:38.282Z,92.83
2018-04-22T02:06:38.302Z,92.64
2018-04-22T02:07:38.322Z,92.60
2018-04-22T02:08:38.343Z,92.69
2018-04-22T02:09:38.364Z,93.46
2018-04-22T02:10:38.385Z,92.88
2018-04-22T02:11:38.404Z,93.55
2018-04-22T02:12:38.427Z,93.36
2018-04-22T02:13:38.446Z,93.46
2018-04-22T02:14:38.467Z,93.17
2018-04-22T02:15:38.486Z,93.46
2018-04-22T02:16:38.507Z,93.17
2018-04-22T02:17:38.527Z,93.84
2018-04-22T02:18:38.547Z,94.03
2018-04-22T02:19:38.571Z,94.12
2018-04-22T02:20:38.588Z,94.79
2018-04-22T02:21:38.609Z,94.41
2018-04-22T02:22:38.629Z,93.93
2018-04-22T02:23:38.649Z,94.60
2018-04-22T02:24:38.669Z,94.31
2018-04-22T02:25:38.693Z,94.89
2018-04-22T02:26:38.712Z,94.41
2018-04-22T02:27:38.729Z,94.89
2018-04-22T02:28:38.753Z,94.60
2018-04-22T02:29:38.771Z,95.36
2018-04-22T02:30:38.791Z,94.98
2018-04-22T02:31:38.815Z,94.51
2018-04-22T02:32:38.831Z,95.27
2018-04-22T02:33:38.851Z,95.17
2018-04-22T02:34:38.873Z,95.27
2018-04-22T02:35:38.893Z,95.27
2018-04-22T02:36:38.913Z,95.08
2018-04-22T02:37:38.933Z,95.08
2018-04-22T02:38:38.953Z,94.89
2018-04-22T02:39:38.973Z,95.75
2018-04-22T02:40:38.993Z,95.56
2018-04-22T02:41:39.014Z,94.89
2018-04-22T02:42:39.034Z,95.08
2018-04-22T02:43:39.080Z,95.27
2018-04-22T02:44:39.074Z,94.79
2018-04-22T02:45:39.099Z,95.56
2018-04-22T02:46:39.115Z,95.27
2018-04-22T02:47:39.134Z,95.94
2018-04-22T02:48:39.155Z,95.17
2018-04-22T02:49:39.182Z,95.27
2018-04-22T02:50:39.196Z,95.27
2018-04-22T02:51:39.216Z,95.27
2018-04-22T02:52:39.236Z,95.46
2018-04-22T02:53:39.257Z,96.22
2018-04-22T02:54:39.277Z,95.84
2018-04-22T02:55:39.302Z,96.13
2018-04-22T02:56:39.329Z,96.03
2018-04-22T02:57:39.337Z,95.75
2018-04-22T02:58:39.359Z,96.13
2018-04-22T02:59:39.378Z,96.32
2018-04-22T03:00:39.398Z,96.22
2018-04-22T03:01:39.419Z,96.32
2018-04-22T03:02:39.440Z,96.32
2018-04-22T03:03:39.460Z,96.32
2018-04-22T03:04:39.480Z,96.42
2018-04-22T03:05:39.500Z,96.51
2018-04-22T03:06:39.523Z,96.51
2018-04-22T03:07:39.540Z,96.70
2018-04-22T03:08:39.561Z,96.89
2018-04-22T03:09:39.585Z,96.70
2018-04-22T03:10:39.602Z,96.51
2018-04-22T03:11:39.621Z,96.61
2018-04-22T03:12:39.642Z,96.70
2018-04-22T03:13:39.664Z,95.94
2018-04-22T03:14:39.683Z,96.80
2018-04-22T03:15:39.703Z,96.51
2018-04-22T03:16:39.722Z,96.61
2018-04-22T03:17:39.744Z,96.89
2018-04-22T03:18:39.764Z,97.27
2018-04-22T03:19:39.783Z,96.98
2018-04-22T03:20:39.803Z,97.27
2018-04-22T03:21:39.825Z,97.75
2018-04-22T03:22:39.845Z,97.56
2018-04-22T03:23:39.865Z,97.75
2018-04-22T03:24:39.885Z,97.08
2018-04-22T03:25:39.953Z,97.66
2018-04-22T03:26:39.926Z,97.27
2018-04-22T03:27:39.990Z,97.56
2018-04-22T03:28:39.969Z,97.27
2018-04-22T03:29:39.990Z,97.37
2018-04-22T03:30:40.006Z,97.37
2018-04-22T03:31:40.027Z,97.37
2018-04-22T03:32:40.048Z,97.37
2018-04-22T03:33:40.068Z,97.08
2018-04-22T03:34:40.091Z,97.27
2018-04-22T03:35:40.109Z,96.89
2018-04-22T03:36:40.129Z,97.47
2018-04-22T03:37:40.149Z,97.37
2018-04-22T03:38:40.170Z,97.56
2018-04-22T03:39:40.190Z,97.37
2018-04-22T03:40:40.211Z,97.75
2018-04-22T03:41:40.231Z,97.56
2018-04-22T03:42:40.251Z,97.75
2018-04-22T03:43:40.271Z,98.42
2018-04-22T03:44:40.292Z,98.52
2018-04-22T03:45:40.312Z,97.75
2018-04-22T03:46:40.333Z,97.94
2018-04-22T03:47:40.354Z,97.75
2018-04-22T03:48:40.374Z,97.94
2018-04-22T03:49:40.395Z,97.75
2018-04-22T03:50:40.415Z,97.85
2018-04-22T03:51:40.435Z,98.13
2018-04-22T03:52:40.458Z,98.23
2018-04-22T03:53:40.481Z,97.94
2018-04-22T03:54:40.497Z,98.03
2018-04-22T03:55:40.516Z,97.85
2018-04-22T03:56:40.540Z,97.75
2018-04-22T03:57:40.561Z,98.13
2018-04-22T03:58:40.577Z,98.13
2018-04-22T03:59:40.598Z,98.03
2018-04-22T04:00:40.622Z,98.42
2018-04-22T04:01:40.639Z,98.71
2018-04-22T04:02:40.660Z,99.08
2018-04-22T04:03:40.678Z,98.71
2018-04-22T04:04:40.699Z,99.28
2018-04-22T04:05:40.720Z,99.47
2018-04-22T04:06:40.741Z,99.66
2018-04-22T04:07:40.760Z,99.57
2018-04-22T04:08:40.780Z,99.76
2018-04-22T04:09:40.801Z,99.99
2018-04-22T04:10:40.832Z,99.99
2018-04-22T04:11:40.841Z,99.99
2018-04-22T04:12:40.861Z,99.99
2018-04-22T04:13:40.883Z,99.99
2018-04-22T04:14:40.904Z,99.76
2018-04-22T04:15:40.922Z,99.66
2018-04-22T04:16:40.942Z,99.37
2018-04-22T04:17:40.963Z,99.76
2018-04-22T04:18:40.982Z,99.47
2018-04-22T04:19:41.004Z,99.57
2018-04-22T04:20:41.031Z,99.47
2018-04-22T04:21:41.045Z,99.57
2018-04-22T04:22:41.065Z,99.28
2018-04-22T04:23:41.086Z,99.47
2018-04-22T04:24:41.106Z,99.47
2018-04-22T04:25:41.329Z,99.76
2018-04-22T04:26:41.146Z,99.99
2018-04-22T04:27:41.169Z,99.57
2018-04-22T04:28:41.189Z,99.37
2018-04-22T04:29:41.205Z,99.57
2018-04-22T04:30:41.282Z,99.76
2018-04-22T04:31:41.247Z,99.66
2018-04-22T04:32:41.269Z,99.47
2018-04-22T04:33:41.287Z,99.47
2018-04-22T04:34:41.309Z,99.66
2018-04-22T04:35:41.328Z,99.57
2018-04-22T04:36:41.349Z,99.57
2018-04-22T04:37:41.368Z,99.57
2018-04-22T04:38:41.390Z,99.76
2018-04-22T04:39:41.411Z,99.57
2018-04-22T04:40:41.430Z,99.66
2018-04-22T04:41:41.450Z,99.57
2018-04-22T04:42:41.471Z,99.57
2018-04-22T04:43:41.490Z,99.57
2018-04-22T04:44:41.511Z,99.37
2018-04-22T04:45:41.532Z,99.66
2018-04-22T04:46:41.555Z,99.37
2018-04-22T04:47:41.571Z,99.47
2018-04-22T04:48:41.592Z,99.57
2018-04-22T04:49:41.613Z,99.37
2018-04-22T04:50:41.633Z,99.76
2018-04-22T04:51:41.653Z,99.47
2018-04-22T04:52:41.673Z,99.66
2018-04-22T04:53:41.694Z,99.95
2018-04-22T04:54:41.715Z,99.66
2018-04-22T04:55:41.736Z,99.57
2018-04-22T04:56:41.756Z,99.66
2018-04-22T04:57:41.777Z,99.57
2018-04-22T04:58:41.803Z,99.08
2018-04-22T04:59:41.816Z,98.99
2018-04-22T05:00:41.840Z,99.18
2018-04-22T05:01:41.858Z,98.90
2018-04-22T05:02:41.877Z,98.99
2018-04-22T05:03:41.897Z,98.71
2018-04-22T05:04:41.920Z,98.80
2018-04-22T05:05:41.939Z,98.32
2018-04-22T05:06:41.967Z,98.90
2018-04-22T05:07:41.979Z,98.23
2018-04-22T05:08:42.005Z,99.18
2018-04-22T05:09:42.019Z,99.28
2018-04-22T05:10:42.063Z,99.37
2018-04-22T05:11:42.060Z,99.47
2018-04-22T05:12:42.081Z,99.47
2018-04-22T05:13:42.101Z,99.57
2018-04-22T05:14:42.123Z,99.47
2018-04-22T05:15:42.141Z,99.37
2018-04-22T05:16:42.162Z,99.47
2018-04-22T05:17:42.183Z,99.57
2018-04-22T05:18:42.236Z,99.47
2018-04-22T05:19:42.224Z,99.47
2018-04-22T05:20:42.244Z,98.90
2018-04-22T05:21:42.265Z,99.28
2018-04-22T05:22:42.284Z,98.99
2018-04-22T05:23:42.307Z,98.90
2018-04-22T05:24:42.326Z,99.47
2018-04-22T05:25:42.347Z,99.08
2018-04-22T05:26:42.370Z,98.99
2018-04-22T05:27:42.387Z,98.99
2018-04-22T05:28:42.407Z,99.08
2018-04-22T05:29:42.429Z,99.08
2018-04-22T05:30:42.451Z,98.99
2018-04-22T05:31:42.472Z,98.85
2018-04-22T05:32:42.488Z,99.14
2018-04-22T05:33:42.511Z,99.08
2018-04-22T05:34:42.533Z,98.47
2018-04-22T05:35:42.552Z,97.80
2018-04-22T05:36:42.572Z,97.80
2018-04-22T05:37:42.593Z,98.18
2018-04-22T05:38:42.614Z,98.18
2018-04-22T05:39:42.637Z,97.71
2018-04-22T05:40:42.653Z,97.23
2018-04-22T05:41:42.683Z,97.52
2018-04-22T05:42:42.751Z,97.03
2018-04-22T05:43:42.715Z,97.32
2018-04-22T05:44:42.738Z,97.23
2018-04-22T05:45:42.758Z,97.23
2018-04-22T05:46:42.779Z,97.47
2018-04-22T05:47:42.799Z,97.56
2018-04-22T05:48:42.876Z,97.18
2018-04-22T05:49:42.845Z,96.89
2018-04-22T05:50:42.863Z,96.89
2018-04-22T05:51:42.883Z,96.99
2018-04-22T05:52:42.903Z,96.99
2018-04-22T05:53:42.924Z,97.37
2018-04-22T05:54:42.946Z,97.66
2018-04-22T05:55:42.968Z,97.37
2018-04-22T05:56:42.988Z,97.37
2018-04-22T05:57:43.010Z,97.47
2018-04-22T05:58:43.031Z,97.66
2018-04-22T05:59:43.051Z,97.56
2018-04-22T06:00:43.122Z,96.89
2018-04-22T06:01:43.092Z,97.47
2018-04-22T06:02:43.114Z,97.47
2018-04-22T06:03:43.135Z,96.89
2018-04-22T06:04:43.156Z,96.70
2018-04-22T06:05:43.176Z,96.99
2018-04-22T06:06:43.197Z,96.80
2018-04-22T06:07:43.218Z,96.13
2018-04-22T06:08:43.239Z,96.32
2018-04-22T06:09:43.260Z,96.32
2018-04-22T06:10:43.282Z,96.27
2018-04-22T06:11:43.302Z,96.18
2018-04-22T06:12:43.323Z,96.37
2018-04-22T06:13:43.345Z,96.47
2018-04-22T06:14:43.366Z,95.70
2018-04-22T06:15:43.387Z,95.89
2018-04-22T06:16:43.407Z,95.51
2018-04-22T06:17:43.429Z,95.22
2018-04-22T06:18:43.451Z,95.32
2018-04-22T06:19:43.471Z,94.46
2018-04-22T06:20:43.492Z,94.46
2018-04-22T06:21:43.514Z,94.79
2018-04-22T06:22:43.535Z,94.31
2018-04-22T06:23:43.555Z,94.41
2018-04-22T06:24:43.577Z,94.50
2018-04-22T06:25:43.599Z,94.65
2018-04-22T06:26:43.620Z,94.60
2018-04-22T06:27:43.641Z,94.41
2018-04-22T06:28:43.663Z,94.41
2018-04-22T06:29:43.684Z,94.70
2018-04-22T06:30:43.707Z,93.45
2018-04-22T06:31:43.727Z,93.84
2018-04-22T06:32:43.848Z,93.64
2018-04-22T06:33:43.770Z,93.07
2018-04-22T06:34:43.792Z,93.40
2018-04-22T06:35:43.813Z,93.12
2018-04-22T06:36:43.833Z,92.54
2018-04-22T06:37:43.855Z,92.92
2018-04-22T06:38:43.878Z,92.83
2018-04-22T06:39:43.898Z,92.92
2018-04-22T06:40:43.920Z,92.25
2018-04-22T06:41:43.943Z,91.97
2018-04-22T06:42:43.964Z,91.72
2018-04-22T06:43:43.985Z,92.30
2018-04-22T06:44:44.008Z,91.63
2018-04-22T06:45:44.029Z,91.15
2018-04-22T06:46:44.051Z,90.14
2018-04-22T06:47:44.072Z,89.66
2018-04-22T06:48:44.095Z,89.57
2018-04-22T06:49:44.117Z,89.86
2018-04-22T06:50:44.139Z,90.23
2018-04-22T06:51:44.163Z,90.23
2018-04-22T06:52:44.183Z,89.37
2018-04-22T06:53:44.205Z,90.23
2018-04-22T06:54:44.228Z,90.05
2018-04-22T06:55:44.250Z,89.57
2018-04-22T06:56:44.272Z,89.57
2018-04-22T06:57:44.294Z,89.95
2018-04-22T06:58:44.369Z,90.05
2018-04-22T06:59:44.339Z,89.04
2018-04-22T07:00:44.361Z,89.57
2018-04-22T07:01:44.384Z,89.23
2018-04-22T07:02:44.406Z,90.53
2018-04-22T07:03:44.428Z,90.53
2018-04-22T07:04:44.454Z,90.81
2018-04-22T07:05:44.474Z,91.00
2018-04-22T07:06:44.498Z,91.10
2018-04-22T07:07:44.520Z,91.00
2018-04-22T07:08:44.545Z,91.05
2018-04-22T07:09:44.566Z,91.63
2018-04-22T07:10:44.589Z,91.05
2018-04-22T07:11:44.612Z,91.24
2018-04-22T07:12:44.636Z,91.53
2018-04-22T07:13:44.657Z,91.14
2018-04-22T07:14:44.680Z,91.43
2018-04-22T07:15:44.704Z,91.43
2018-04-22T07:16:44.779Z,91.09
2018-04-22T07:17:44.748Z,90.81
2018-04-22T07:18:44.771Z,91.00
2018-04-22T07:19:44.794Z,90.14
2018-04-22T07:20:44.818Z,89.85
2018-04-22T07:21:44.842Z,89.65
2018-04-22T07:22:44.863Z,89.75
2018-04-22T07:23:44.885Z,89.94
2018-04-22T07:24:44.908Z,90.14
2018-04-22T07:25:44.933Z,90.04
2018-04-22T07:26:44.959Z,90.61
2018-04-22T07:27:44.977Z,90.33
2018-04-22T07:28:45.001Z,90.52
2018-04-22T07:29:45.024Z,90.23
2018-04-22T07:30:45.048Z,90.81
2018-04-22T07:31:45.072Z,90.61
2018-04-22T07:32:45.094Z,90.75
2018-04-22T07:33:45.119Z,90.23
2018-04-22T07:34:45.140Z,90.28
2018-04-22T07:35:45.163Z,90.18
2018-04-22T07:36:45.187Z,90.71
2018-04-22T07:37:45.210Z,90.75
2018-04-22T07:38:45.234Z,90.66
2018-04-22T07:39:45.256Z,90.47
2018-04-22T07:40:45.338Z,89.79
2018-04-22T07:41:45.303Z,89.70
2018-04-22T07:42:45.327Z,89.22
2018-04-22T07:43:45.349Z,88.79
2018-04-22T07:44:45.377Z,89.07
2018-04-22T07:45:45.397Z,89.26
2018-04-22T07:46:45.724Z,89.36
2018-04-22T07:47:45.444Z,89.36
2018-04-22T07:48:45.467Z,88.98
2018-04-22T07:49:45.491Z,89.17
2018-04-22T07:50:45.516Z,88.21
2018-04-22T07:51:45.538Z,88.59
2018-04-22T07:52:45.562Z,88.25
2018-04-22T07:53:45.586Z,88.45
2018-04-22T07:54:45.615Z,88.45
2018-04-22T07:55:45.633Z,89.12
2018-04-22T07:56:45.657Z,88.64
2018-04-22T07:57:45.682Z,89.07
2018-04-22T07:58:45.706Z,89.75
2018-04-22T07:59:45.728Z,90.70
2018-04-22T08:00:45.752Z,90.32
2018-04-22T08:01:45.776Z,90.37
2018-04-22T08:02:45.801Z,90.61
2018-04-22T08:03:45.824Z,90.61
2018-04-22T08:04:45.851Z,90.66
2018-04-22T08:05:45.874Z,90.17
2018-04-22T08:06:45.938Z,89.79
2018-04-22T08:07:45.919Z,90.17
2018-04-22T08:08:45.944Z,91.04
2018-04-22T08:09:45.972Z,89.98
2018-04-22T08:10:45.992Z,89.98
2018-04-22T08:11:46.016Z,89.83
2018-04-22T08:12:46.039Z,89.74
2018-04-22T08:13:46.064Z,89.54
2018-04-22T08:14:46.089Z,89.36
2018-04-22T08:15:46.115Z,90.03
2018-04-22T08:16:46.136Z,89.93
2018-04-22T08:17:46.164Z,90.03
2018-04-22T08:18:46.186Z,89.69
2018-04-22T08:19:46.209Z,89.21
2018-04-22T08:20:46.234Z,88.73
2018-04-22T08:21:46.258Z,89.01
2018-04-22T08:22:46.283Z,89.11
2018-04-22T08:23:46.306Z,89.40
2018-04-22T08:24:46.332Z,88.24
2018-04-22T08:25:46.356Z,88.34
2018-04-22T08:26:46.381Z,89.21
2018-04-22T08:27:46.405Z,89.06
2018-04-22T08:28:46.428Z,88.77
2018-04-22T08:29:46.453Z,88.48
2018-04-22T08:30:46.479Z,88.10
2018-04-22T08:31:46.502Z,87.71
2018-04-22T08:32:46.527Z,88.29
2018-04-22T08:33:46.551Z,87.13
2018-04-22T08:34:46.576Z,86.51
2018-04-22T08:35:46.602Z,86.31
2018-04-22T08:36:46.626Z,85.16
2018-04-22T08:37:46.651Z,84.00
2018-04-22T08:38:46.676Z,84.39
2018-04-22T08:39:46.702Z,84.77
2018-04-22T08:40:46.724Z,85.25
2018-04-22T08:41:46.750Z,85.44
2018-04-22T08:42:46.774Z,85.83
2018-04-22T08:43:46.807Z,85.58
2018-04-22T08:44:46.825Z,84.48
2018-04-22T08:45:46.849Z,86.02
2018-04-22T08:46:46.874Z,86.31
2018-04-22T08:47:46.900Z,86.99
2018-04-22T08:48:46.924Z,86.31
2018-04-22T08:49:46.950Z,86.51
2018-04-22T08:50:47.226Z,86.16
2018-04-22T08:51:47.000Z,85.78
2018-04-22T08:52:47.025Z,85.30
2018-04-22T08:53:47.201Z,85.20
2018-04-22T08:54:47.076Z,86.79
2018-04-22T08:55:47.100Z,87.76
2018-04-22T08:56:47.177Z,87.18
2018-04-22T08:57:47.152Z,87.51
2018-04-22T08:58:47.178Z,86.55
2018-04-22T08:59:47.202Z,85.63
2018-04-22T09:00:47.227Z,84.66
2018-04-22T09:01:47.253Z,83.74
2018-04-22T09:02:47.278Z,83.26
2018-04-22T09:03:47.303Z,82.97
2018-04-22T09:04:47.329Z,82.01
2018-04-22T09:05:47.354Z,80.60
2018-04-22T09:06:47.380Z,80.12
2018-04-22T09:07:47.405Z,79.93
2018-04-22T09:08:47.430Z,79.93
2018-04-22T09:09:47.457Z,79.64
2018-04-22T09:10:47.484Z,78.19
2018-04-22T09:11:47.507Z,76.98
2018-04-22T09:12:47.534Z,75.34
2018-04-22T09:13:47.559Z,75.34
2018-04-22T09:14:47.635Z,74.95
2018-04-22T09:15:47.611Z,74.18
2018-04-22T09:16:47.639Z,74.66
2018-04-22T09:17:47.663Z,74.27
2018-04-22T09:18:47.690Z,74.08
2018-04-22T09:19:47.715Z,74.57
2018-04-22T09:20:47.741Z,74.31
2018-04-22T09:21:47.768Z,73.54
2018-04-22T09:22:47.794Z,72.61
2018-04-22T09:23:47.820Z,72.42
2018-04-22T09:24:47.846Z,71.84
2018-04-22T09:25:47.877Z,71.94
2018-04-22T09:26:47.900Z,72.03
2018-04-22T09:27:47.925Z,71.55
2018-04-22T09:28:47.952Z,71.45
2018-04-22T09:29:47.979Z,72.42
2018-04-22T09:30:48.005Z,71.26
2018-04-22T09:31:48.031Z,71.06
2018-04-22T09:32:48.058Z,70.58
2018-04-22T09:33:48.088Z,70.20
2018-04-22T09:34:48.113Z,69.62
2018-04-22T09:35:48.138Z,68.49
2018-04-22T09:36:48.165Z,68.98
2018-04-22T09:37:48.193Z,68.98
2018-04-22T09:38:48.220Z,68.88
2018-04-22T09:39:48.245Z,68.78
2018-04-22T09:40:48.272Z,68.30
2018-04-22T09:41:48.300Z,68.40
2018-04-22T09:42:48.328Z,68.59
2018-04-22T09:43:48.353Z,68.20
2018-04-22T09:44:48.384Z,68.88
2018-04-22T09:45:48.407Z,67.82
2018-04-22T09:46:48.434Z,67.91
2018-04-22T09:47:48.461Z,67.24
2018-04-22T09:48:48.488Z,66.94
2018-04-22T09:49:48.568Z,65.82
2018-04-22T09:50:48.543Z,65.72
2018-04-22T09:51:48.569Z,65.92
2018-04-22T09:52:48.601Z,65.82
2018-04-22T09:53:48.626Z,65.53
2018-04-22T09:54:48.651Z,65.24
2018-04-22T09:55:48.679Z,65.82
2018-04-22T09:56:48.706Z,66.11
2018-04-22T09:57:48.735Z,66.11
2018-04-22T09:58:48.763Z,66.20
2018-04-22T09:59:48.789Z,65.82
2018-04-22T10:00:48.816Z,65.92
2018-04-22T10:01:48.845Z,66.01
2018-04-22T10:02:48.871Z,66.01
2018-04-22T10:03:48.897Z,65.43
2018-04-22T10:04:48.933Z,65.53
2018-04-22T10:05:48.954Z,65.53
2018-04-22T10:06:48.985Z,65.47
2018-04-22T10:07:49.008Z,65.82
2018-04-22T10:08:49.036Z,66.88
2018-04-22T10:09:49.063Z,67.52
2018-04-22T10:10:49.490Z,67.24
2018-04-22T10:11:49.117Z,67.56
2018-04-22T10:12:49.145Z,66.30
2018-04-22T10:13:49.173Z,66.14
2018-04-22T10:14:49.200Z,65.27
2018-04-22T10:15:49.228Z,64.79
2018-04-22T10:16:49.256Z,64.01
2018-04-22T10:17:49.284Z,63.73
2018-04-22T10:18:49.312Z,62.98
2018-04-22T10:19:49.338Z,62.98
2018-04-22T10:20:49.370Z,62.69
2018-04-22T10:21:49.396Z,62.76
2018-04-22T10:22:49.422Z,63.34
2018-04-22T10:23:49.449Z,63.24
2018-04-22T10:24:49.477Z,63.43
2018-04-22T10:25:49.504Z,63.24
2018-04-22T10:26:49.533Z,62.95
2018-04-22T10:27:49.560Z,63.73
2018-04-22T10:28:49.587Z,63.98
2018-04-22T10:29:49.620Z,64.18
2018-04-22T10:30:49.675Z,64.76
2018-04-22T10:31:49.671Z,65.43
2018-04-22T10:32:49.698Z,65.95
2018-04-22T10:33:49.728Z,64.98
2018-04-22T10:34:49.755Z,64.11
2018-04-22T10:35:49.782Z,63.43
2018-04-22T10:36:49.812Z,63.43
2018-04-22T10:37:49.837Z,63.27
2018-04-22T10:38:49.864Z,62.50
2018-04-22T10:39:49.894Z,62.92
2018-04-22T10:40:49.925Z,61.95
2018-04-22T10:41:49.949Z,61.76
2018-04-22T10:42:50.527Z,61.95
2018-04-22T10:43:50.004Z,62.14
2018-04-22T10:44:50.033Z,61.46
2018-04-22T10:45:50.060Z,60.88
2018-04-22T10:46:50.089Z,61.56
2018-04-22T10:47:50.120Z,61.11
2018-04-22T10:48:50.144Z,60.72
2018-04-22T10:49:50.173Z,60.04
2018-04-22T10:50:50.200Z,59.94
2018-04-22T10:51:50.227Z,59.66
2018-04-22T10:52:50.256Z,58.78
2018-04-22T10:53:50.286Z,59.66
2018-04-22T10:54:50.312Z,59.84
2018-04-22T10:55:50.340Z,59.94
2018-04-22T10:56:50.381Z,59.84
2018-04-22T10:57:50.464Z,58.39
2018-04-22T10:58:50.426Z,57.14
2018-04-22T10:59:50.490Z,57.04
2018-04-22T11:00:50.481Z,57.33
2018-04-22T11:01:50.509Z,57.43
2018-04-22T11:02:50.537Z,56.94
2018-04-22T11:03:50.567Z,56.85
2018-04-22T11:04:50.594Z,56.77
2018-04-22T11:05:50.623Z,56.39
2018-04-22T11:06:50.652Z,56.10
2018-04-22T11:07:50.680Z,56.49
2018-04-22T11:08:50.709Z,56.68
2018-04-22T11:09:50.737Z,55.90
2018-04-22T11:10:50.767Z,55.52
2018-04-22T11:11:50.814Z,55.13
2018-04-22T11:12:50.822Z,54.84
2018-04-22T11:13:50.851Z,54.38
2018-04-22T11:14:50.880Z,54.58
2018-04-22T11:15:50.912Z,54.35
2018-04-22T11:16:50.936Z,54.55
2018-04-22T11:17:50.965Z,54.55
2018-04-22T11:18:50.995Z,55.04
2018-04-22T11:19:51.024Z,55.04
2018-04-22T11:20:51.050Z,54.84
2018-04-22T11:21:51.084Z,55.04
2018-04-22T11:22:51.108Z,55.52
2018-04-22T11:23:51.150Z,54.84
2018-04-22T11:24:51.164Z,54.84
2018-04-22T11:25:51.193Z,54.64
2018-04-22T11:26:51.225Z,53.67
2018-04-22T11:27:51.253Z,53.67
2018-04-22T11:28:51.279Z,53.49
2018-04-22T11:29:51.309Z,53.70
2018-04-22T11:30:51.337Z,53.31
2018-04-22T11:31:51.371Z,53.19
2018-04-22T11:32:51.394Z,53.49
2018-04-22T11:33:51.422Z,53.97
2018-04-22T11:34:51.452Z,54.26
2018-04-22T11:35:51.479Z,53.61
2018-04-22T11:36:51.510Z,53.31
2018-04-22T11:37:51.537Z,53.51
2018-04-22T11:38:51.568Z,52.22
2018-04-22T11:39:51.594Z,52.06
2018-04-22T11:40:51.623Z,52.54
2018-04-22T11:41:51.653Z,52.54
2018-04-22T11:42:51.681Z,52.73
2018-04-22T11:43:51.709Z,51.50
2018-04-22T11:44:51.739Z,50.24
2018-04-22T11:45:51.771Z,49.17
2018-04-22T11:46:51.800Z,48.90
2018-04-22T11:47:51.910Z,48.03
2018-04-22T11:48:51.856Z,47.64
2018-04-22T11:49:51.884Z,47.55
2018-04-22T11:50:51.912Z,47.16
2018-04-22T11:51:51.941Z,47.16
2018-04-22T11:52:51.968Z,46.77
2018-04-22T11:53:51.999Z,46.86
2018-04-22T11:54:52.028Z,46.67
2018-04-22T11:55:52.057Z,47.45
2018-04-22T11:56:52.088Z,47.25
2018-04-22T11:57:52.116Z,47.16
2018-04-22T11:58:52.145Z,47.74
2018-04-22T11:59:52.216Z,47.64
2018-04-22T12:00:52.203Z,47.25
2018-04-22T12:01:52.232Z,47.45
2018-04-22T12:02:52.261Z,46.96
2018-04-22T12:03:52.296Z,46.77
2018-04-22T12:04:52.320Z,46.48
2018-04-22T12:05:52.350Z,46.38
2018-04-22T12:06:52.379Z,45.97
2018-04-22T12:07:52.407Z,45.80
2018-04-22T12:08:52.437Z,46.07
2018-04-22T12:09:52.468Z,46.36
2018-04-22T12:10:52.495Z,46.26
2018-04-22T12:11:52.525Z,45.87
2018-04-22T12:12:52.604Z,45.31
2018-04-22T12:13:52.586Z,45.12
2018-04-22T12:14:52.613Z,44.64
2018-04-22T12:15:52.641Z,44.24
2018-04-22T12:16:52.672Z,43.86
2018-04-22T12:17:52.699Z,43.95
2018-04-22T12:18:52.730Z,43.59
2018-04-22T12:19:52.764Z,42.43
2018-04-22T12:20:52.789Z,41.06
2018-04-22T12:21:52.818Z,40.48
2018-04-22T12:22:52.846Z,40.09
2018-04-22T12:23:52.877Z,40.09
2018-04-22T12:24:52.909Z,40.48
2018-04-22T12:25:52.936Z,40.87
2018-04-22T12:26:52.964Z,41.06
2018-04-22T12:27:52.995Z,40.77
2018-04-22T12:28:53.026Z,41.06
2018-04-22T12:29:53.054Z,41.36
2018-04-22T12:30:53.088Z,41.33
2018-04-22T12:31:53.129Z,40.56
2018-04-22T12:32:53.142Z,40.36
2018-04-22T12:33:53.171Z,39.70
2018-04-22T12:34:53.205Z,38.93
2018-04-22T12:35:53.230Z,38.44
2018-04-22T12:36:53.259Z,38.07
2018-04-22T12:37:53.341Z,37.98
2018-04-22T12:38:53.319Z,36.81
2018-04-22T12:39:53.347Z,37.01
2018-04-22T12:40:53.377Z,37.10
2018-04-22T12:41:53.406Z,37.08
2018-04-22T12:42:53.437Z,36.69
2018-04-22T12:43:53.465Z,36.69
2018-04-22T12:44:53.495Z,36.69
2018-04-22T12:45:53.525Z,36.21
2018-04-22T12:46:53.554Z,36.40
2018-04-22T12:47:53.632Z,36.60
2018-04-22T12:48:53.613Z,36.50
2018-04-22T12:49:53.643Z,36.30
2018-04-22T12:50:53.673Z,36.30
2018-04-22T12:51:53.701Z,35.35
2018-04-22T12:52:53.731Z,34.87